sensor_id;sensor_type;location;lat;lon;timestamp;temperature;humidity
12006;DHT22;6062;47.294;12.182;2023-04-15T00:01:26;1.20;69.10
12006;DHT22;6062;47.294;12.182;2023-04-15T00:03:53;1.10;69.20
12006;DHT22;6062;47.294;12.182;2023-04-15T00:06:22;1.10;69.20
12006;DHT22;6062;47.294;12.182;2023-04-15T00:08:48;1.10;69.20
12006;DHT22;6062;47.294;12.182;2023-04-15T00:11:15;1.10;69.10
12006;DHT22;6062;47.294;12.182;2023-04-15T00:13:41;1.10;68.80
12006;DHT22;6062;47.294;12.182;2023-04-15T00:16:08;1.00;68.50
12006;DHT22;6062;47.294;12.182;2023-04-15T00:18:35;1.00;68.60
12006;DHT22;6062;47.294;12.182;2023-04-15T00:21:01;1.00;68.80
12006;DHT22;6062;47.294;12.182;2023-04-15T00:23:28;1.00;68.80
12006;DHT22;6062;47.294;12.182;2023-04-15T00:25:55;1.00;68.80
12006;DHT22;6062;47.294;12.182;2023-04-15T00:28:21;1.00;68.60
12006;DHT22;6062;47.294;12.182;2023-04-15T00:30:46;0.90;68.40
12006;DHT22;6062;47.294;12.182;2023-04-15T00:33:13;0.90;68.70
12006;DHT22;6062;47.294;12.182;2023-04-15T00:35:40;0.90;68.90
12006;DHT22;6062;47.294;12.182;2023-04-15T00:38:06;0.90;68.90
12006;DHT22;6062;47.294;12.182;2023-04-15T00:40:35;0.90;69.00
12006;DHT22;6062;47.294;12.182;2023-04-15T00:43:01;0.90;68.90
12006;DHT22;6062;47.294;12.182;2023-04-15T00:45:27;0.90;68.80
12006;DHT22;6062;47.294;12.182;2023-04-15T00:47:53;0.90;68.90
12006;DHT22;6062;47.294;12.182;2023-04-15T00:50:20;0.90;69.00
12006;DHT22;6062;47.294;12.182;2023-04-15T00:52:46;0.90;68.80
12006;DHT22;6062;47.294;12.182;2023-04-15T00:55:12;0.90;68.80
12006;DHT22;6062;47.294;12.182;2023-04-15T00:57:38;0.90;69.00
12006;DHT22;6062;47.294;12.182;2023-04-15T01:00:05;0.90;69.10
12006;DHT22;6062;47.294;12.182;2023-04-15T01:02:36;0.90;69.20
12006;DHT22;6062;47.294;12.182;2023-04-15T01:05:02;0.90;69.30
12006;DHT22;6062;47.294;12.182;2023-04-15T01:07:29;0.90;69.40
12006;DHT22;6062;47.294;12.182;2023-04-15T01:09:55;0.90;69.50
12006;DHT22;6062;47.294;12.182;2023-04-15T01:12:21;0.90;69.30
12006;DHT22;6062;47.294;12.182;2023-04-15T01:14:48;0.90;69.10
12006;DHT22;6062;47.294;12.182;2023-04-15T01:17:14;0.90;68.80
12006;DHT22;6062;47.294;12.182;2023-04-15T01:19:40;0.90;68.70
12006;DHT22;6062;47.294;12.182;2023-04-15T01:22:06;0.90;68.80
12006;DHT22;6062;47.294;12.182;2023-04-15T01:24:32;0.80;68.60
12006;DHT22;6062;47.294;12.182;2023-04-15T01:26:59;0.80;68.70
12006;DHT22;6062;47.294;12.182;2023-04-15T01:29:25;0.80;68.70
12006;DHT22;6062;47.294;12.182;2023-04-15T01:31:53;0.80;68.90
12006;DHT22;6062;47.294;12.182;2023-04-15T01:34:20;0.80;69.20
12006;DHT22;6062;47.294;12.182;2023-04-15T01:36:46;0.80;69.00
12006;DHT22;6062;47.294;12.182;2023-04-15T01:39:12;0.80;69.00
12006;DHT22;6062;47.294;12.182;2023-04-15T01:41:38;0.80;69.10
12006;DHT22;6062;47.294;12.182;2023-04-15T01:44:05;0.80;69.40
12006;DHT22;6062;47.294;12.182;2023-04-15T01:46:31;0.80;69.80
12006;DHT22;6062;47.294;12.182;2023-04-15T01:48:57;0.80;69.70
12006;DHT22;6062;47.294;12.182;2023-04-15T01:51:23;0.80;69.60
12006;DHT22;6062;47.294;12.182;2023-04-15T01:53:48;0.80;69.50
12006;DHT22;6062;47.294;12.182;2023-04-15T01:56:14;0.80;69.70
12006;DHT22;6062;47.294;12.182;2023-04-15T01:58:40;0.80;69.60
12006;DHT22;6062;47.294;12.182;2023-04-15T02:01:06;0.80;69.30
12006;DHT22;6062;47.294;12.182;2023-04-15T02:03:32;0.80;69.30
12006;DHT22;6062;47.294;12.182;2023-04-15T02:05:57;0.80;69.30
12006;DHT22;6062;47.294;12.182;2023-04-15T02:08:23;0.70;69.20
12006;DHT22;6062;47.294;12.182;2023-04-15T02:10:49;0.70;69.10
12006;DHT22;6062;47.294;12.182;2023-04-15T02:13:15;0.70;69.10
12006;DHT22;6062;47.294;12.182;2023-04-15T02:15:46;0.70;69.10
12006;DHT22;6062;47.294;12.182;2023-04-15T02:18:13;0.70;69.20
12006;DHT22;6062;47.294;12.182;2023-04-15T02:20:40;0.70;69.40
12006;DHT22;6062;47.294;12.182;2023-04-15T02:23:07;0.70;69.40
12006;DHT22;6062;47.294;12.182;2023-04-15T02:25:33;0.70;69.30
12006;DHT22;6062;47.294;12.182;2023-04-15T02:27:59;0.70;69.20
12006;DHT22;6062;47.294;12.182;2023-04-15T02:30:25;0.80;69.20
12006;DHT22;6062;47.294;12.182;2023-04-15T02:32:51;0.80;69.10
12006;DHT22;6062;47.294;12.182;2023-04-15T02:35:17;0.80;68.90
12006;DHT22;6062;47.294;12.182;2023-04-15T02:37:45;0.80;68.90
12006;DHT22;6062;47.294;12.182;2023-04-15T02:40:11;0.80;69.00
12006;DHT22;6062;47.294;12.182;2023-04-15T02:42:41;0.80;69.10
12006;DHT22;6062;47.294;12.182;2023-04-15T02:45:07;0.80;69.20
12006;DHT22;6062;47.294;12.182;2023-04-15T02:47:36;0.80;69.30
12006;DHT22;6062;47.294;12.182;2023-04-15T02:50:09;0.80;69.20
12006;DHT22;6062;47.294;12.182;2023-04-15T02:52:39;0.80;69.00
12006;DHT22;6062;47.294;12.182;2023-04-15T02:55:06;0.80;69.60
12006;DHT22;6062;47.294;12.182;2023-04-15T02:57:32;0.80;69.80
12006;DHT22;6062;47.294;12.182;2023-04-15T02:59:59;0.80;69.40
12006;DHT22;6062;47.294;12.182;2023-04-15T03:02:25;0.80;69.20
12006;DHT22;6062;47.294;12.182;2023-04-15T03:04:50;0.80;69.40
12006;DHT22;6062;47.294;12.182;2023-04-15T03:07:17;0.80;69.30
12006;DHT22;6062;47.294;12.182;2023-04-15T03:09:44;0.80;69.00
12006;DHT22;6062;47.294;12.182;2023-04-15T03:12:12;0.70;68.90
12006;DHT22;6062;47.294;12.182;2023-04-15T03:14:37;0.70;68.90
12006;DHT22;6062;47.294;12.182;2023-04-15T03:17:03;0.70;68.90
12006;DHT22;6062;47.294;12.182;2023-04-15T03:19:29;0.70;69.00
12006;DHT22;6062;47.294;12.182;2023-04-15T03:21:54;0.70;68.90
12006;DHT22;6062;47.294;12.182;2023-04-15T03:24:20;0.70;68.80
12006;DHT22;6062;47.294;12.182;2023-04-15T03:26:46;0.70;68.70
12006;DHT22;6062;47.294;12.182;2023-04-15T03:29:12;0.70;68.60
12006;DHT22;6062;47.294;12.182;2023-04-15T03:31:37;0.60;68.60
12006;DHT22;6062;47.294;12.182;2023-04-15T03:34:03;0.60;68.70
12006;DHT22;6062;47.294;12.182;2023-04-15T03:36:29;0.60;69.00
12006;DHT22;6062;47.294;12.182;2023-04-15T03:38:59;0.50;69.20
12006;DHT22;6062;47.294;12.182;2023-04-15T03:41:26;0.50;69.40
12006;DHT22;6062;47.294;12.182;2023-04-15T03:43:53;0.60;69.50
12006;DHT22;6062;47.294;12.182;2023-04-15T03:46:19;0.60;69.50
12006;DHT22;6062;47.294;12.182;2023-04-15T03:48:45;0.60;70.20
12006;DHT22;6062;47.294;12.182;2023-04-15T03:51:11;0.60;70.40
12006;DHT22;6062;47.294;12.182;2023-04-15T03:53:37;0.60;70.30
12006;DHT22;6062;47.294;12.182;2023-04-15T03:56:03;0.60;70.10
12006;DHT22;6062;47.294;12.182;2023-04-15T03:58:28;0.60;70.00
12006;DHT22;6062;47.294;12.182;2023-04-15T04:00:54;0.60;70.00
12006;DHT22;6062;47.294;12.182;2023-04-15T04:03:20;0.60;69.90
12006;DHT22;6062;47.294;12.182;2023-04-15T04:05:45;0.60;69.80
12006;DHT22;6062;47.294;12.182;2023-04-15T04:08:11;0.60;69.80
12006;DHT22;6062;47.294;12.182;2023-04-15T04:10:41;0.60;69.80
12006;DHT22;6062;47.294;12.182;2023-04-15T04:13:07;0.60;69.80
12006;DHT22;6062;47.294;12.182;2023-04-15T04:15:33;0.60;69.90
12006;DHT22;6062;47.294;12.182;2023-04-15T04:17:58;0.60;70.30
12006;DHT22;6062;47.294;12.182;2023-04-15T04:20:24;0.60;70.60
12006;DHT22;6062;47.294;12.182;2023-04-15T04:22:50;0.60;70.60
12006;DHT22;6062;47.294;12.182;2023-04-15T04:25:16;0.60;70.50
12006;DHT22;6062;47.294;12.182;2023-04-15T04:27:41;0.60;70.70
12006;DHT22;6062;47.294;12.182;2023-04-15T04:30:08;0.60;72.00
12006;DHT22;6062;47.294;12.182;2023-04-15T04:32:34;0.70;73.20
12006;DHT22;6062;47.294;12.182;2023-04-15T04:34:59;0.70;73.30
12006;DHT22;6062;47.294;12.182;2023-04-15T04:37:25;0.70;72.90
12006;DHT22;6062;47.294;12.182;2023-04-15T04:39:51;0.70;73.30
12006;DHT22;6062;47.294;12.182;2023-04-15T04:42:17;0.60;72.40
12006;DHT22;6062;47.294;12.182;2023-04-15T04:44:42;0.60;72.30
12006;DHT22;6062;47.294;12.182;2023-04-15T04:47:08;0.60;72.30
12006;DHT22;6062;47.294;12.182;2023-04-15T04:49:34;0.60;72.10
12006;DHT22;6062;47.294;12.182;2023-04-15T04:51:59;0.60;72.20
12006;DHT22;6062;47.294;12.182;2023-04-15T04:54:25;0.60;72.30
12006;DHT22;6062;47.294;12.182;2023-04-15T04:56:52;0.60;72.40
12006;DHT22;6062;47.294;12.182;2023-04-15T04:59:17;0.60;72.60
12006;DHT22;6062;47.294;12.182;2023-04-15T05:01:43;0.70;72.60
12006;DHT22;6062;47.294;12.182;2023-04-15T05:04:09;0.70;72.90
12006;DHT22;6062;47.294;12.182;2023-04-15T05:06:35;0.70;72.80
12006;DHT22;6062;47.294;12.182;2023-04-15T05:09:01;0.70;72.70
12006;DHT22;6062;47.294;12.182;2023-04-15T05:11:28;0.70;72.60
12006;DHT22;6062;47.294;12.182;2023-04-15T05:13:54;0.70;72.70
12006;DHT22;6062;47.294;12.182;2023-04-15T05:16:20;0.70;72.50
12006;DHT22;6062;47.294;12.182;2023-04-15T05:18:46;0.70;72.70
12006;DHT22;6062;47.294;12.182;2023-04-15T05:21:12;0.70;73.20
12006;DHT22;6062;47.294;12.182;2023-04-15T05:23:38;0.70;73.20
12006;DHT22;6062;47.294;12.182;2023-04-15T05:26:03;0.80;73.20
12006;DHT22;6062;47.294;12.182;2023-04-15T05:28:29;0.80;73.20
12006;DHT22;6062;47.294;12.182;2023-04-15T05:30:55;0.80;73.00
12006;DHT22;6062;47.294;12.182;2023-04-15T05:33:21;0.80;73.00
12006;DHT22;6062;47.294;12.182;2023-04-15T05:35:47;0.90;73.10
12006;DHT22;6062;47.294;12.182;2023-04-15T05:38:13;0.90;73.00
12006;DHT22;6062;47.294;12.182;2023-04-15T05:40:38;1.00;73.10
12006;DHT22;6062;47.294;12.182;2023-04-15T05:43:04;1.00;73.30
12006;DHT22;6062;47.294;12.182;2023-04-15T05:45:30;1.10;73.20
12006;DHT22;6062;47.294;12.182;2023-04-15T05:47:56;1.10;73.00
12006;DHT22;6062;47.294;12.182;2023-04-15T05:50:21;1.20;72.90
12006;DHT22;6062;47.294;12.182;2023-04-15T05:52:47;1.30;72.70
12006;DHT22;6062;47.294;12.182;2023-04-15T05:55:13;1.40;72.60
12006;DHT22;6062;47.294;12.182;2023-04-15T05:57:39;1.50;72.80
12006;DHT22;6062;47.294;12.182;2023-04-15T06:00:05;1.60;72.50
12006;DHT22;6062;47.294;12.182;2023-04-15T06:02:31;1.70;71.80
12006;DHT22;6062;47.294;12.182;2023-04-15T06:04:57;1.80;70.80
12006;DHT22;6062;47.294;12.182;2023-04-15T06:07:23;1.90;70.10
12006;DHT22;6062;47.294;12.182;2023-04-15T06:09:49;1.90;69.60
12006;DHT22;6062;47.294;12.182;2023-04-15T06:12:15;1.90;68.80
12006;DHT22;6062;47.294;12.182;2023-04-15T06:14:41;1.90;68.60
12006;DHT22;6062;47.294;12.182;2023-04-15T06:17:07;1.90;68.20
12006;DHT22;6062;47.294;12.182;2023-04-15T06:19:34;1.90;67.80
12006;DHT22;6062;47.294;12.182;2023-04-15T06:22:01;1.90;68.00
12006;DHT22;6062;47.294;12.182;2023-04-15T06:24:28;1.90;67.70
12006;DHT22;6062;47.294;12.182;2023-04-15T06:26:53;1.90;67.60
12006;DHT22;6062;47.294;12.182;2023-04-15T06:29:19;1.90;67.50
12006;DHT22;6062;47.294;12.182;2023-04-15T06:31:47;1.80;67.50
12006;DHT22;6062;47.294;12.182;2023-04-15T06:34:13;1.80;67.20
12006;DHT22;6062;47.294;12.182;2023-04-15T06:36:39;1.80;67.10
12006;DHT22;6062;47.294;12.182;2023-04-15T06:39:05;1.80;67.10
12006;DHT22;6062;47.294;12.182;2023-04-15T06:41:30;1.80;67.50
12006;DHT22;6062;47.294;12.182;2023-04-15T06:43:56;1.80;67.70
12006;DHT22;6062;47.294;12.182;2023-04-15T06:46:22;1.90;68.00
12006;DHT22;6062;47.294;12.182;2023-04-15T06:48:48;1.90;68.30
12006;DHT22;6062;47.294;12.182;2023-04-15T06:51:13;2.00;68.20
12006;DHT22;6062;47.294;12.182;2023-04-15T06:53:39;2.10;68.30
12006;DHT22;6062;47.294;12.182;2023-04-15T06:56:07;2.20;68.50
12006;DHT22;6062;47.294;12.182;2023-04-15T06:58:33;2.30;68.40
12006;DHT22;6062;47.294;12.182;2023-04-15T07:00:59;2.40;68.60
12006;DHT22;6062;47.294;12.182;2023-04-15T07:03:25;2.50;68.80
12006;DHT22;6062;47.294;12.182;2023-04-15T07:05:51;2.70;68.90
12006;DHT22;6062;47.294;12.182;2023-04-15T07:08:18;2.80;68.40
12006;DHT22;6062;47.294;12.182;2023-04-15T07:10:45;2.90;67.50
12006;DHT22;6062;47.294;12.182;2023-04-15T07:13:11;3.00;67.80
12006;DHT22;6062;47.294;12.182;2023-04-15T07:15:37;3.10;67.60
12006;DHT22;6062;47.294;12.182;2023-04-15T07:18:03;3.20;67.10
12006;DHT22;6062;47.294;12.182;2023-04-15T07:20:29;3.30;66.90
12006;DHT22;6062;47.294;12.182;2023-04-15T07:22:55;3.40;66.70
12006;DHT22;6062;47.294;12.182;2023-04-15T07:25:21;3.40;66.30
12006;DHT22;6062;47.294;12.182;2023-04-15T07:27:47;3.50;66.10
12006;DHT22;6062;47.294;12.182;2023-04-15T07:30:12;3.60;66.30
12006;DHT22;6062;47.294;12.182;2023-04-15T07:32:45;3.60;65.80
12006;DHT22;6062;47.294;12.182;2023-04-15T07:35:11;3.70;66.00
12006;DHT22;6062;47.294;12.182;2023-04-15T07:37:37;3.80;66.00
12006;DHT22;6062;47.294;12.182;2023-04-15T07:40:03;3.90;65.60
12006;DHT22;6062;47.294;12.182;2023-04-15T07:42:31;4.00;65.40
12006;DHT22;6062;47.294;12.182;2023-04-15T07:44:58;4.00;65.60
12006;DHT22;6062;47.294;12.182;2023-04-15T07:47:24;4.20;65.20
12006;DHT22;6062;47.294;12.182;2023-04-15T07:49:50;4.30;65.00
12006;DHT22;6062;47.294;12.182;2023-04-15T07:52:16;4.40;65.30
12006;DHT22;6062;47.294;12.182;2023-04-15T07:54:41;4.60;65.00
12006;DHT22;6062;47.294;12.182;2023-04-15T07:57:07;4.80;64.90
12006;DHT22;6062;47.294;12.182;2023-04-15T07:59:33;5.00;64.00
12006;DHT22;6062;47.294;12.182;2023-04-15T08:01:58;5.10;64.00
12006;DHT22;6062;47.294;12.182;2023-04-15T08:04:24;5.30;64.40
12006;DHT22;6062;47.294;12.182;2023-04-15T08:06:50;5.50;64.80
12006;DHT22;6062;47.294;12.182;2023-04-15T08:09:16;5.60;64.10
12006;DHT22;6062;47.294;12.182;2023-04-15T08:11:42;5.70;64.20
12006;DHT22;6062;47.294;12.182;2023-04-15T08:14:08;5.80;63.70
12006;DHT22;6062;47.294;12.182;2023-04-15T08:16:33;6.00;63.70
12006;DHT22;6062;47.294;12.182;2023-04-15T08:18:59;6.20;63.80
12006;DHT22;6062;47.294;12.182;2023-04-15T08:21:25;6.30;63.50
12006;DHT22;6062;47.294;12.182;2023-04-15T08:23:52;6.50;63.90
12006;DHT22;6062;47.294;12.182;2023-04-15T08:26:19;6.70;63.90
12006;DHT22;6062;47.294;12.182;2023-04-15T08:28:46;6.80;63.00
12006;DHT22;6062;47.294;12.182;2023-04-15T08:31:16;7.00;62.50
12006;DHT22;6062;47.294;12.182;2023-04-15T08:33:43;7.10;62.70
12006;DHT22;6062;47.294;12.182;2023-04-15T08:36:09;7.20;61.50
12006;DHT22;6062;47.294;12.182;2023-04-15T08:38:35;7.30;61.20
12006;DHT22;6062;47.294;12.182;2023-04-15T08:41:22;7.30;60.40
12006;DHT22;6062;47.294;12.182;2023-04-15T08:44:01;7.30;57.90
12006;DHT22;6062;47.294;12.182;2023-04-15T08:46:30;7.20;58.50
12006;DHT22;6062;47.294;12.182;2023-04-15T08:48:58;7.20;59.80
12006;DHT22;6062;47.294;12.182;2023-04-15T08:51:24;7.10;60.20
12006;DHT22;6062;47.294;12.182;2023-04-15T08:53:52;7.10;60.70
12006;DHT22;6062;47.294;12.182;2023-04-15T08:56:19;7.10;61.30
12006;DHT22;6062;47.294;12.182;2023-04-15T08:58:53;7.20;61.90
12006;DHT22;6062;47.294;12.182;2023-04-15T09:01:19;7.30;61.40
12006;DHT22;6062;47.294;12.182;2023-04-15T09:03:48;7.40;61.70
12006;DHT22;6062;47.294;12.182;2023-04-15T09:06:16;7.50;61.40
12006;DHT22;6062;47.294;12.182;2023-04-15T09:08:42;7.50;61.70
12006;DHT22;6062;47.294;12.182;2023-04-15T09:11:09;7.60;61.40
12006;DHT22;6062;47.294;12.182;2023-04-15T09:13:34;7.70;61.30
12006;DHT22;6062;47.294;12.182;2023-04-15T09:16:01;7.80;61.20
12006;DHT22;6062;47.294;12.182;2023-04-15T09:18:33;7.80;60.90
12006;DHT22;6062;47.294;12.182;2023-04-15T09:21:12;7.90;59.20
12006;DHT22;6062;47.294;12.182;2023-04-15T09:23:41;7.90;59.40
12006;DHT22;6062;47.294;12.182;2023-04-15T09:26:38;7.80;59.10
12006;DHT22;6062;47.294;12.182;2023-04-15T09:31:31;7.80;59.70
12006;DHT22;6062;47.294;12.182;2023-04-15T09:33:58;7.80;59.30
12006;DHT22;6062;47.294;12.182;2023-04-15T09:36:24;7.80;59.40
12006;DHT22;6062;47.294;12.182;2023-04-15T09:38:57;7.90;59.90
12006;DHT22;6062;47.294;12.182;2023-04-15T09:41:25;7.90;59.10
12006;DHT22;6062;47.294;12.182;2023-04-15T09:43:51;8.00;59.60
12006;DHT22;6062;47.294;12.182;2023-04-15T09:46:17;7.90;59.90
12006;DHT22;6062;47.294;12.182;2023-04-15T09:48:43;8.00;60.00
12006;DHT22;6062;47.294;12.182;2023-04-15T09:51:09;8.00;59.70
12006;DHT22;6062;47.294;12.182;2023-04-15T09:53:36;8.00;59.60
12006;DHT22;6062;47.294;12.182;2023-04-15T09:56:05;8.00;59.50
12006;DHT22;6062;47.294;12.182;2023-04-15T09:58:34;8.00;59.70
12006;DHT22;6062;47.294;12.182;2023-04-15T10:01:02;8.10;59.70
12006;DHT22;6062;47.294;12.182;2023-04-15T10:03:31;8.10;60.10
12006;DHT22;6062;47.294;12.182;2023-04-15T10:06:00;8.10;60.20
12006;DHT22;6062;47.294;12.182;2023-04-15T10:08:28;8.20;60.00
12006;DHT22;6062;47.294;12.182;2023-04-15T10:10:55;8.20;60.20
12006;DHT22;6062;47.294;12.182;2023-04-15T10:13:25;8.30;59.80
12006;DHT22;6062;47.294;12.182;2023-04-15T10:15:59;8.30;58.60
12006;DHT22;6062;47.294;12.182;2023-04-15T10:18:42;8.40;58.90
12006;DHT22;6062;47.294;12.182;2023-04-15T10:21:09;8.40;59.70
12006;DHT22;6062;47.294;12.182;2023-04-15T10:23:35;8.40;60.20
12006;DHT22;6062;47.294;12.182;2023-04-15T10:26:03;8.40;60.70
12006;DHT22;6062;47.294;12.182;2023-04-15T10:28:29;8.50;60.40
12006;DHT22;6062;47.294;12.182;2023-04-15T10:30:56;8.60;60.70
12006;DHT22;6062;47.294;12.182;2023-04-15T10:33:24;8.70;60.50
12006;DHT22;6062;47.294;12.182;2023-04-15T10:35:52;8.80;60.20
12006;DHT22;6062;47.294;12.182;2023-04-15T10:38:37;8.90;59.90
12006;DHT22;6062;47.294;12.182;2023-04-15T10:41:23;9.00;58.40
12006;DHT22;6062;47.294;12.182;2023-04-15T10:44:09;9.20;58.10
12006;DHT22;6062;47.294;12.182;2023-04-15T10:46:42;9.30;57.20
12006;DHT22;6062;47.294;12.182;2023-04-15T10:49:22;9.40;57.30
12006;DHT22;6062;47.294;12.182;2023-04-15T10:51:56;9.50;56.50
12006;DHT22;6062;47.294;12.182;2023-04-15T10:59:36;9.60;54.50
12006;DHT22;6062;47.294;12.182;2023-04-15T11:02:47;9.50;54.40
12006;DHT22;6062;47.294;12.182;2023-04-15T11:05:14;9.40;53.30
12006;DHT22;6062;47.294;12.182;2023-04-15T11:07:53;9.20;54.00
12006;DHT22;6062;47.294;12.182;2023-04-15T11:13:14;8.90;53.60
12006;DHT22;6062;47.294;12.182;2023-04-15T11:15:43;8.80;53.40
12006;DHT22;6062;47.294;12.182;2023-04-15T11:18:18;8.60;54.00
12006;DHT22;6062;47.294;12.182;2023-04-15T11:23:31;8.40;55.40
12006;DHT22;6062;47.294;12.182;2023-04-15T11:26:12;8.40;55.70
12006;DHT22;6062;47.294;12.182;2023-04-15T11:28:46;8.40;56.70
12006;DHT22;6062;47.294;12.182;2023-04-15T11:31:14;8.40;56.30
12006;DHT22;6062;47.294;12.182;2023-04-15T11:33:46;8.40;56.50
12006;DHT22;6062;47.294;12.182;2023-04-15T11:36:19;8.50;56.50
12006;DHT22;6062;47.294;12.182;2023-04-15T11:38:48;8.60;57.20
12006;DHT22;6062;47.294;12.182;2023-04-15T11:41:13;8.70;56.90
12006;DHT22;6062;47.294;12.182;2023-04-15T11:43:40;8.80;55.50
12006;DHT22;6062;47.294;12.182;2023-04-15T11:46:05;8.80;55.80
12006;DHT22;6062;47.294;12.182;2023-04-15T11:48:34;8.90;55.80
12006;DHT22;6062;47.294;12.182;2023-04-15T11:51:05;9.00;56.10
12006;DHT22;6062;47.294;12.182;2023-04-15T11:53:46;9.00;55.80
12006;DHT22;6062;47.294;12.182;2023-04-15T11:56:21;9.10;55.80
12006;DHT22;6062;47.294;12.182;2023-04-15T11:58:56;9.10;56.40
12006;DHT22;6062;47.294;12.182;2023-04-15T12:01:37;9.20;56.40
12006;DHT22;6062;47.294;12.182;2023-04-15T12:04:14;9.30;55.60
12006;DHT22;6062;47.294;12.182;2023-04-15T12:06:42;9.30;55.90
12006;DHT22;6062;47.294;12.182;2023-04-15T12:09:11;9.40;56.40
12006;DHT22;6062;47.294;12.182;2023-04-15T12:11:39;9.40;56.50
12006;DHT22;6062;47.294;12.182;2023-04-15T12:16:57;9.60;56.50
12006;DHT22;6062;47.294;12.182;2023-04-15T12:19:28;9.80;56.70
12006;DHT22;6062;47.294;12.182;2023-04-15T12:21:59;9.90;56.00
12006;DHT22;6062;47.294;12.182;2023-04-15T12:24:33;10.10;56.30
12006;DHT22;6062;47.294;12.182;2023-04-15T12:27:11;10.20;56.10
12006;DHT22;6062;47.294;12.182;2023-04-15T12:29:38;10.40;55.40
12006;DHT22;6062;47.294;12.182;2023-04-15T12:32:14;10.50;54.90
12006;DHT22;6062;47.294;12.182;2023-04-15T12:34:48;10.50;54.60
12006;DHT22;6062;47.294;12.182;2023-04-15T12:37:15;10.60;54.20
12006;DHT22;6062;47.294;12.182;2023-04-15T12:39:43;10.60;54.80
12006;DHT22;6062;47.294;12.182;2023-04-15T12:42:10;10.60;54.20
12006;DHT22;6062;47.294;12.182;2023-04-15T12:44:37;10.60;54.90
12006;DHT22;6062;47.294;12.182;2023-04-15T12:47:03;10.70;55.20
12006;DHT22;6062;47.294;12.182;2023-04-15T12:49:30;10.70;55.00
12006;DHT22;6062;47.294;12.182;2023-04-15T12:51:58;10.80;54.10
12006;DHT22;6062;47.294;12.182;2023-04-15T12:54:26;10.80;53.80
12006;DHT22;6062;47.294;12.182;2023-04-15T12:56:53;10.80;53.30
12006;DHT22;6062;47.294;12.182;2023-04-15T12:59:20;10.80;53.20
12006;DHT22;6062;47.294;12.182;2023-04-15T13:01:48;10.70;52.80
12006;DHT22;6062;47.294;12.182;2023-04-15T13:04:15;10.70;53.40
12006;DHT22;6062;47.294;12.182;2023-04-15T13:06:41;10.60;53.40
12006;DHT22;6062;47.294;12.182;2023-04-15T13:09:07;10.60;54.00
12006;DHT22;6062;47.294;12.182;2023-04-15T13:11:33;10.50;54.60
12006;DHT22;6062;47.294;12.182;2023-04-15T13:14:01;10.50;55.50
12006;DHT22;6062;47.294;12.182;2023-04-15T13:16:28;10.50;55.00
12006;DHT22;6062;47.294;12.182;2023-04-15T13:18:55;10.50;55.10
12006;DHT22;6062;47.294;12.182;2023-04-15T13:21:20;10.50;54.90
12006;DHT22;6062;47.294;12.182;2023-04-15T13:23:48;10.50;55.00
12006;DHT22;6062;47.294;12.182;2023-04-15T13:26:15;10.50;54.90
12006;DHT22;6062;47.294;12.182;2023-04-15T13:28:42;10.40;54.90
12006;DHT22;6062;47.294;12.182;2023-04-15T13:31:07;10.40;55.00
12006;DHT22;6062;47.294;12.182;2023-04-15T13:33:33;10.30;55.40
12006;DHT22;6062;47.294;12.182;2023-04-15T13:35:59;10.30;55.70
12006;DHT22;6062;47.294;12.182;2023-04-15T13:38:24;10.30;55.60
12006;DHT22;6062;47.294;12.182;2023-04-15T13:40:51;10.30;55.50
12006;DHT22;6062;47.294;12.182;2023-04-15T13:43:16;10.20;54.70
12006;DHT22;6062;47.294;12.182;2023-04-15T13:45:43;10.20;54.60
12006;DHT22;6062;47.294;12.182;2023-04-15T13:48:11;10.10;54.60
12006;DHT22;6062;47.294;12.182;2023-04-15T13:50:37;10.00;54.50
12006;DHT22;6062;47.294;12.182;2023-04-15T13:53:03;10.00;54.60
12006;DHT22;6062;47.294;12.182;2023-04-15T13:55:28;9.90;54.70
12006;DHT22;6062;47.294;12.182;2023-04-15T13:57:55;9.70;53.60
12006;DHT22;6062;47.294;12.182;2023-04-15T14:00:21;9.60;54.00
12006;DHT22;6062;47.294;12.182;2023-04-15T14:02:47;9.50;53.60
12006;DHT22;6062;47.294;12.182;2023-04-15T14:05:12;9.30;53.80
12006;DHT22;6062;47.294;12.182;2023-04-15T14:07:38;9.20;53.60
12006;DHT22;6062;47.294;12.182;2023-04-15T14:10:04;9.00;53.70
12006;DHT22;6062;47.294;12.182;2023-04-15T14:12:30;8.90;54.20
12006;DHT22;6062;47.294;12.182;2023-04-15T14:14:56;8.70;55.00
12006;DHT22;6062;47.294;12.182;2023-04-15T14:17:22;8.60;55.50
12006;DHT22;6062;47.294;12.182;2023-04-15T14:19:48;8.50;55.80
12006;DHT22;6062;47.294;12.182;2023-04-15T14:22:13;8.40;55.70
12006;DHT22;6062;47.294;12.182;2023-04-15T14:24:39;8.30;55.80
12006;DHT22;6062;47.294;12.182;2023-04-15T14:27:05;8.20;55.90
12006;DHT22;6062;47.294;12.182;2023-04-15T14:29:33;8.10;55.90
12006;DHT22;6062;47.294;12.182;2023-04-15T14:31:58;8.10;55.90
12006;DHT22;6062;47.294;12.182;2023-04-15T14:34:25;8.00;55.40
12006;DHT22;6062;47.294;12.182;2023-04-15T14:36:51;7.90;55.20
12006;DHT22;6062;47.294;12.182;2023-04-15T14:39:19;7.80;55.30
12006;DHT22;6062;47.294;12.182;2023-04-15T14:41:46;7.60;55.30
12006;DHT22;6062;47.294;12.182;2023-04-15T14:44:12;7.50;55.50
12006;DHT22;6062;47.294;12.182;2023-04-15T14:46:38;7.40;55.90
12006;DHT22;6062;47.294;12.182;2023-04-15T14:49:05;7.30;56.50
12006;DHT22;6062;47.294;12.182;2023-04-15T14:51:31;7.30;57.00
12006;DHT22;6062;47.294;12.182;2023-04-15T14:53:57;7.30;56.60
12006;DHT22;6062;47.294;12.182;2023-04-15T14:56:22;7.30;56.40
12006;DHT22;6062;47.294;12.182;2023-04-15T14:58:48;7.30;56.50
12006;DHT22;6062;47.294;12.182;2023-04-15T15:01:14;7.30;56.50
12006;DHT22;6062;47.294;12.182;2023-04-15T15:03:40;7.30;56.50
12006;DHT22;6062;47.294;12.182;2023-04-15T15:06:06;7.20;56.50
12006;DHT22;6062;47.294;12.182;2023-04-15T15:08:31;7.20;56.50
12006;DHT22;6062;47.294;12.182;2023-04-15T15:10:57;7.20;56.30
12006;DHT22;6062;47.294;12.182;2023-04-15T15:13:23;7.20;56.20
12006;DHT22;6062;47.294;12.182;2023-04-15T15:15:49;7.10;56.10
12006;DHT22;6062;47.294;12.182;2023-04-15T15:18:16;7.10;56.30
12006;DHT22;6062;47.294;12.182;2023-04-15T15:20:43;7.00;56.60
12006;DHT22;6062;47.294;12.182;2023-04-15T15:23:09;7.00;56.60
12006;DHT22;6062;47.294;12.182;2023-04-15T15:25:35;6.90;56.60
12006;DHT22;6062;47.294;12.182;2023-04-15T15:28:00;6.90;57.40
12006;DHT22;6062;47.294;12.182;2023-04-15T15:30:26;6.90;57.70
12006;DHT22;6062;47.294;12.182;2023-04-15T15:32:53;6.90;57.20
12006;DHT22;6062;47.294;12.182;2023-04-15T15:35:19;6.90;56.90
12006;DHT22;6062;47.294;12.182;2023-04-15T15:37:47;6.90;56.70
12006;DHT22;6062;47.294;12.182;2023-04-15T15:40:13;6.80;56.90
12006;DHT22;6062;47.294;12.182;2023-04-15T15:42:38;6.70;56.90
12006;DHT22;6062;47.294;12.182;2023-04-15T15:45:05;6.70;57.10
12006;DHT22;6062;47.294;12.182;2023-04-15T15:47:31;6.60;57.20
12006;DHT22;6062;47.294;12.182;2023-04-15T15:49:57;6.60;57.20
12006;DHT22;6062;47.294;12.182;2023-04-15T15:52:22;6.50;57.80
12006;DHT22;6062;47.294;12.182;2023-04-15T15:54:48;6.40;57.10
12006;DHT22;6062;47.294;12.182;2023-04-15T15:57:14;6.40;57.20
12006;DHT22;6062;47.294;12.182;2023-04-15T15:59:39;6.30;57.50
12006;DHT22;6062;47.294;12.182;2023-04-15T16:02:12;6.20;58.20